sensor_id;sensor_type;location;lat;lon;timestamp;pressure;altitude;pressure_sealevel;temperature;humidity
68197;BME280;55019;49.382;11.358;2022-07-23T00:01:35;96687.69;;;21.22;64.89
68197;BME280;55019;49.382;11.358;2022-07-23T00:04:00;96677.53;;;21.25;65.80
68197;BME280;55019;49.382;11.358;2022-07-23T00:06:26;96654.31;;;21.11;64.17
68197;BME280;55019;49.382;11.358;2022-07-23T00:08:52;96657.97;;;21.10;65.84
68197;BME280;55019;49.382;11.358;2022-07-23T00:11:18;96638.97;;;20.96;65.21
68197;BME280;55019;49.382;11.358;2022-07-23T00:13:43;96632.56;;;20.92;64.75
68197;BME280;55019;49.382;11.358;2022-07-23T00:16:09;96622.13;;;20.74;65.56
68197;BME280;55019;49.382;11.358;2022-07-23T00:18:34;96623.53;;;20.88;64.27
68197;BME280;55019;49.382;11.358;2022-07-23T00:21:00;96624.88;;;20.79;65.71
68197;BME280;55019;49.382;11.358;2022-07-23T00:23:25;96623.69;;;20.64;65.59
68197;BME280;55019;49.382;11.358;2022-07-23T00:25:52;96624.78;;;20.56;66.67
68197;BME280;55019;49.382;11.358;2022-07-23T00:28:18;96621.78;;;20.42;67.18
68197;BME280;55019;49.382;11.358;2022-07-23T00:30:44;96611.34;;;20.64;65.63
68197;BME280;55019;49.382;11.358;2022-07-23T00:33:10;96615.94;;;20.40;66.72
68197;BME280;55019;49.382;11.358;2022-07-23T00:35:38;96610.84;;;20.44;64.54
68197;BME280;55019;49.382;11.358;2022-07-23T00:38:06;96614.78;;;20.36;65.20
68197;BME280;55019;49.382;11.358;2022-07-23T00:40:32;96603.72;;;20.34;67.73
68197;BME280;55019;49.382;11.358;2022-07-23T00:42:58;96592.53;;;20.27;67.71
68197;BME280;55019;49.382;11.358;2022-07-23T00:45:24;96597.41;;;20.23;68.09
68197;BME280;55019;49.382;11.358;2022-07-23T00:47:50;96586.66;;;19.95;68.04
68197;BME280;55019;49.382;11.358;2022-07-23T00:50:16;96587.16;;;20.04;69.44
68197;BME280;55019;49.382;11.358;2022-07-23T00:52:42;96588.00;;;19.98;69.77
68197;BME280;55019;49.382;11.358;2022-07-23T00:55:09;96593.44;;;19.85;70.46
68197;BME280;55019;49.382;11.358;2022-07-23T00:57:36;96596.31;;;19.95;68.15
68197;BME280;55019;49.382;11.358;2022-07-23T01:00:04;96592.84;;;20.01;68.14
68197;BME280;55019;49.382;11.358;2022-07-23T01:02:30;96593.56;;;20.08;68.44
68197;BME280;55019;49.382;11.358;2022-07-23T01:04:56;96602.38;;;20.13;69.13
68197;BME280;55019;49.382;11.358;2022-07-23T01:07:21;96598.22;;;20.06;69.39
68197;BME280;55019;49.382;11.358;2022-07-23T01:09:47;96595.03;;;20.04;69.02
68197;BME280;55019;49.382;11.358;2022-07-23T01:12:13;96599.69;;;20.02;70.14
68197;BME280;55019;49.382;11.358;2022-07-23T01:14:39;96610.91;;;20.09;69.64
68197;BME280;55019;49.382;11.358;2022-07-23T01:17:05;96615.31;;;20.26;69.22
68197;BME280;55019;49.382;11.358;2022-07-23T01:19:30;96616.34;;;20.25;69.50
68197;BME280;55019;49.382;11.358;2022-07-23T01:21:57;96627.47;;;20.39;68.61
68197;BME280;55019;49.382;11.358;2022-07-23T01:24:23;96625.75;;;20.15;69.72
68197;BME280;55019;49.382;11.358;2022-07-23T01:26:49;96616.00;;;20.04;69.93
68197;BME280;55019;49.382;11.358;2022-07-23T01:29:15;96602.91;;;20.04;69.78
68197;BME280;55019;49.382;11.358;2022-07-23T01:31:41;96592.84;;;20.01;69.60
68197;BME280;55019;49.382;11.358;2022-07-23T01:34:07;96586.38;;;20.03;69.17
68197;BME280;55019;49.382;11.358;2022-07-23T01:36:36;96594.91;;;20.28;68.09
68197;BME280;55019;49.382;11.358;2022-07-23T01:39:03;96598.22;;;20.06;69.01
68197;BME280;55019;49.382;11.358;2022-07-23T01:41:29;96597.22;;;20.07;68.28
68197;BME280;55019;49.382;11.358;2022-07-23T01:43:54;96593.03;;;20.17;66.90
68197;BME280;55019;49.382;11.358;2022-07-23T01:46:20;96578.63;;;20.08;68.62
68197;BME280;55019;49.382;11.358;2022-07-23T01:48:45;96570.91;;;20.13;68.50
68197;BME280;55019;49.382;11.358;2022-07-23T01:51:10;96597.06;;;20.20;68.02
68197;BME280;55019;49.382;11.358;2022-07-23T01:53:36;96601.56;;;20.13;67.25
68197;BME280;55019;49.382;11.358;2022-07-23T01:56:05;96606.81;;;20.13;66.99
68197;BME280;55019;49.382;11.358;2022-07-23T01:58:31;96605.06;;;20.07;67.15
68197;BME280;55019;49.382;11.358;2022-07-23T02:00:59;96608.66;;;19.94;67.76
68197;BME280;55019;49.382;11.358;2022-07-23T02:03:26;96621.25;;;19.86;68.81
68197;BME280;55019;49.382;11.358;2022-07-23T02:05:51;96626.94;;;19.83;69.24
68197;BME280;55019;49.382;11.358;2022-07-23T02:08:17;96635.19;;;19.62;70.43
68197;BME280;55019;49.382;11.358;2022-07-23T02:10:43;96636.22;;;19.61;70.48
68197;BME280;55019;49.382;11.358;2022-07-23T02:13:08;96645.78;;;19.55;70.36
68197;BME280;55019;49.382;11.358;2022-07-23T02:15:34;96636.94;;;19.50;70.00
68197;BME280;55019;49.382;11.358;2022-07-23T02:17:59;96632.88;;;19.54;69.04
68197;BME280;55019;49.382;11.358;2022-07-23T02:20:25;96637.69;;;19.57;68.41
68197;BME280;55019;49.382;11.358;2022-07-23T02:22:50;96651.09;;;19.67;67.08
68197;BME280;55019;49.382;11.358;2022-07-23T02:25:16;96641.19;;;19.69;67.00
68197;BME280;55019;49.382;11.358;2022-07-23T02:27:42;96640.47;;;19.80;66.98
68197;BME280;55019;49.382;11.358;2022-07-23T02:30:08;96642.28;;;19.79;66.47
68197;BME280;55019;49.382;11.358;2022-07-23T02:32:34;96648.19;;;19.75;66.56
68197;BME280;55019;49.382;11.358;2022-07-23T02:35:00;96650.38;;;19.78;66.74
68197;BME280;55019;49.382;11.358;2022-07-23T02:37:26;96639.44;;;19.81;65.70
68197;BME280;55019;49.382;11.358;2022-07-23T02:39:51;96643.09;;;19.80;66.09
68197;BME280;55019;49.382;11.358;2022-07-23T02:42:17;96645.88;;;19.85;65.65
68197;BME280;55019;49.382;11.358;2022-07-23T02:44:43;96642.56;;;19.89;64.64
68197;BME280;55019;49.382;11.358;2022-07-23T02:47:08;96651.09;;;19.85;66.08
68197;BME280;55019;49.382;11.358;2022-07-23T02:49:33;96639.91;;;19.78;68.59
68197;BME280;55019;49.382;11.358;2022-07-23T02:52:02;96617.63;;;19.69;70.00
68197;BME280;55019;49.382;11.358;2022-07-23T02:54:27;96614.41;;;19.67;70.66
68197;BME280;55019;49.382;11.358;2022-07-23T02:56:53;96625.03;;;19.72;70.66
68197;BME280;55019;49.382;11.358;2022-07-23T02:59:18;96635.88;;;19.75;70.67
68197;BME280;55019;49.382;11.358;2022-07-23T03:01:44;96636.03;;;19.62;71.28
68197;BME280;55019;49.382;11.358;2022-07-23T03:04:10;96633.41;;;19.62;71.29
68197;BME280;55019;49.382;11.358;2022-07-23T03:06:35;96626.69;;;19.66;70.43
68197;BME280;55019;49.382;11.358;2022-07-23T03:09:02;96614.63;;;19.65;70.65
68197;BME280;55019;49.382;11.358;2022-07-23T03:11:27;96628.22;;;19.56;71.83
68197;BME280;55019;49.382;11.358;2022-07-23T03:13:53;96626.63;;;19.73;70.35
68197;BME280;55019;49.382;11.358;2022-07-23T03:16:18;96613.31;;;19.74;70.27
68197;BME280;55019;49.382;11.358;2022-07-23T03:18:43;96623.06;;;19.67;70.29
68197;BME280;55019;49.382;11.358;2022-07-23T03:21:12;96634.47;;;19.55;70.80
68197;BME280;55019;49.382;11.358;2022-07-23T03:23:38;96644.16;;;19.54;69.35
68197;BME280;55019;49.382;11.358;2022-07-23T03:26:03;96637.25;;;19.60;69.10
68197;BME280;55019;49.382;11.358;2022-07-23T03:28:29;96630.53;;;19.64;69.52
68197;BME280;55019;49.382;11.358;2022-07-23T03:30:54;96635.16;;;19.68;69.05
68197;BME280;55019;49.382;11.358;2022-07-23T03:33:20;96625.16;;;19.59;69.51
68197;BME280;55019;49.382;11.358;2022-07-23T03:35:47;96629.50;;;19.47;69.85
68197;BME280;55019;49.382;11.358;2022-07-23T03:38:13;96633.44;;;19.38;69.97
68197;BME280;55019;49.382;11.358;2022-07-23T03:40:38;96625.72;;;19.43;69.97
68197;BME280;55019;49.382;11.358;2022-07-23T03:43:04;96624.06;;;19.48;70.13
68197;BME280;55019;49.382;11.358;2022-07-23T03:45:30;96635.84;;;19.39;70.12
68197;BME280;55019;49.382;11.358;2022-07-23T03:47:55;96626.31;;;19.45;69.69
68197;BME280;55019;49.382;11.358;2022-07-23T03:50:21;96628.72;;;19.46;70.00
68197;BME280;55019;49.382;11.358;2022-07-23T03:52:46;96623.25;;;19.48;70.10
68197;BME280;55019;49.382;11.358;2022-07-23T03:55:12;96628.06;;;19.51;69.85
68197;BME280;55019;49.382;11.358;2022-07-23T03:57:38;96631.25;;;19.53;69.06
68197;BME280;55019;49.382;11.358;2022-07-23T04:00:05;96641.41;;;19.49;69.25
68197;BME280;55019;49.382;11.358;2022-07-23T04:02:31;96648.97;;;19.57;68.76
68197;BME280;55019;49.382;11.358;2022-07-23T04:04:58;96649.84;;;19.51;68.95
68197;BME280;55019;49.382;11.358;2022-07-23T04:07:25;96649.31;;;19.61;68.25
68197;BME280;55019;49.382;11.358;2022-07-23T04:09:50;96641.78;;;19.71;68.39
68197;BME280;55019;49.382;11.358;2022-07-23T04:12:16;96646.13;;;19.59;67.80
68197;BME280;55019;49.382;11.358;2022-07-23T04:14:41;96642.47;;;19.60;67.40
68197;BME280;55019;49.382;11.358;2022-07-23T04:17:07;96647.91;;;19.65;67.13
68197;BME280;55019;49.382;11.358;2022-07-23T04:19:32;96648.16;;;19.57;67.63
68197;BME280;55019;49.382;11.358;2022-07-23T04:21:58;96655.44;;;19.55;68.35
68197;BME280;55019;49.382;11.358;2022-07-23T04:24:23;96660.25;;;19.58;68.08
68197;BME280;55019;49.382;11.358;2022-07-23T04:26:48;96646.50;;;19.44;67.98
68197;BME280;55019;49.382;11.358;2022-07-23T04:29:14;96658.88;;;19.55;68.70
68197;BME280;55019;49.382;11.358;2022-07-23T04:31:39;96667.75;;;19.54;67.73
68197;BME280;55019;49.382;11.358;2022-07-23T04:34:05;96658.53;;;19.70;64.17
68197;BME280;55019;49.382;11.358;2022-07-23T04:36:30;96664.38;;;19.90;63.73
68197;BME280;55019;49.382;11.358;2022-07-23T04:38:56;96666.28;;;20.01;62.99
68197;BME280;55019;49.382;11.358;2022-07-23T04:41:21;96671.38;;;20.14;62.63
68197;BME280;55019;49.382;11.358;2022-07-23T04:43:47;96673.06;;;20.08;63.34
68197;BME280;55019;49.382;11.358;2022-07-23T04:46:12;96666.41;;;20.06;63.74
68197;BME280;55019;49.382;11.358;2022-07-23T04:48:38;96676.63;;;20.14;63.79
68197;BME280;55019;49.382;11.358;2022-07-23T04:51:04;96673.34;;;20.18;63.14
68197;BME280;55019;49.382;11.358;2022-07-23T04:53:29;96681.00;;;20.20;63.64
68197;BME280;55019;49.382;11.358;2022-07-23T04:55:55;96677.91;;;20.41;62.58
68197;BME280;55019;49.382;11.358;2022-07-23T04:58:21;96678.63;;;20.47;62.24
68197;BME280;55019;49.382;11.358;2022-07-23T05:00:46;96676.25;;;20.57;61.95
68197;BME280;55019;49.382;11.358;2022-07-23T05:03:12;96674.09;;;20.54;62.08
68197;BME280;55019;49.382;11.358;2022-07-23T05:05:37;96673.63;;;20.57;62.39
68197;BME280;55019;49.382;11.358;2022-07-23T05:08:03;96668.97;;;20.59;61.85
68197;BME280;55019;49.382;11.358;2022-07-23T05:10:29;96662.75;;;20.42;62.90
68197;BME280;55019;49.382;11.358;2022-07-23T05:12:54;96662.44;;;20.50;62.48
68197;BME280;55019;49.382;11.358;2022-07-23T05:15:19;96657.88;;;20.57;62.45
68197;BME280;55019;49.382;11.358;2022-07-23T05:17:45;96655.84;;;20.59;62.05
68197;BME280;55019;49.382;11.358;2022-07-23T05:20:10;96661.19;;;20.53;63.16
68197;BME280;55019;49.382;11.358;2022-07-23T05:22:36;96671.13;;;20.51;62.80
68197;BME280;55019;49.382;11.358;2022-07-23T05:25:01;96663.56;;;20.72;61.67
68197;BME280;55019;49.382;11.358;2022-07-23T05:27:27;96662.88;;;20.77;62.39
68197;BME280;55019;49.382;11.358;2022-07-23T05:29:53;96671.13;;;20.80;62.50
68197;BME280;55019;49.382;11.358;2022-07-23T05:32:19;96672.53;;;20.94;60.74
68197;BME280;55019;49.382;11.358;2022-07-23T05:34:44;96674.03;;;20.90;61.65
68197;BME280;55019;49.382;11.358;2022-07-23T05:37:09;96677.59;;;20.96;61.24
68197;BME280;55019;49.382;11.358;2022-07-23T05:39:35;96677.47;;;21.02;61.13
68197;BME280;55019;49.382;11.358;2022-07-23T05:42:01;96681.13;;;21.01;61.86
68197;BME280;55019;49.382;11.358;2022-07-23T05:44:26;96682.09;;;21.18;60.57
68197;BME280;55019;49.382;11.358;2022-07-23T05:46:52;96677.28;;;21.27;60.09
68197;BME280;55019;49.382;11.358;2022-07-23T05:49:18;96684.84;;;21.23;60.63
68197;BME280;55019;49.382;11.358;2022-07-23T05:51:43;96687.94;;;21.43;59.75
68197;BME280;55019;49.382;11.358;2022-07-23T05:54:09;96693.22;;;21.66;58.73
68197;BME280;55019;49.382;11.358;2022-07-23T05:56:34;96690.16;;;21.69;58.97
68197;BME280;55019;49.382;11.358;2022-07-23T05:59:00;96680.91;;;21.67;59.36
68197;BME280;55019;49.382;11.358;2022-07-23T06:01:25;96681.47;;;21.80;58.28
68197;BME280;55019;49.382;11.358;2022-07-23T06:03:51;96683.06;;;21.81;58.77
68197;BME280;55019;49.382;11.358;2022-07-23T06:06:16;96682.00;;;21.93;58.39
68197;BME280;55019;49.382;11.358;2022-07-23T06:08:42;96688.75;;;22.01;58.03
68197;BME280;55019;49.382;11.358;2022-07-23T06:11:07;96683.59;;;22.17;57.47
68197;BME280;55019;49.382;11.358;2022-07-23T06:13:33;96679.78;;;22.25;57.64
68197;BME280;55019;49.382;11.358;2022-07-23T06:15:58;96688.69;;;22.47;57.19
68197;BME280;55019;49.382;11.358;2022-07-23T06:18:24;96696.34;;;22.48;56.85
68197;BME280;55019;49.382;11.358;2022-07-23T06:20:49;96697.34;;;22.59;55.87
68197;BME280;55019;49.382;11.358;2022-07-23T06:23:14;96691.22;;;22.70;56.66
68197;BME280;55019;49.382;11.358;2022-07-23T06:25:40;96696.03;;;22.73;55.75
68197;BME280;55019;49.382;11.358;2022-07-23T06:28:06;96700.47;;;22.84;56.19
68197;BME280;55019;49.382;11.358;2022-07-23T06:30:31;96697.44;;;22.92;54.81
68197;BME280;55019;49.382;11.358;2022-07-23T06:32:56;96692.81;;;22.99;54.79
68197;BME280;55019;49.382;11.358;2022-07-23T06:35:22;96712.78;;;22.95;54.64
68197;BME280;55019;49.382;11.358;2022-07-23T06:37:47;96704.69;;;23.13;54.43
68197;BME280;55019;49.382;11.358;2022-07-23T06:40:13;96699.41;;;23.13;55.19
68197;BME280;55019;49.382;11.358;2022-07-23T06:42:38;96706.63;;;23.34;54.27
68197;BME280;55019;49.382;11.358;2022-07-23T06:45:07;96710.94;;;23.40;54.58
68197;BME280;55019;49.382;11.358;2022-07-23T06:47:33;96714.13;;;23.42;54.48
68197;BME280;55019;49.382;11.358;2022-07-23T06:49:58;96713.81;;;23.54;54.22
68197;BME280;55019;49.382;11.358;2022-07-23T06:52:24;96725.66;;;23.85;54.60
68197;BME280;55019;49.382;11.358;2022-07-23T06:54:51;96720.91;;;24.03;52.20
68197;BME280;55019;49.382;11.358;2022-07-23T06:57:16;96717.91;;;24.16;51.97
68197;BME280;55019;49.382;11.358;2022-07-23T06:59:42;96721.38;;;24.38;51.86
68197;BME280;55019;49.382;11.358;2022-07-23T07:02:08;96715.19;;;24.71;50.24
68197;BME280;55019;49.382;11.358;2022-07-23T07:04:33;96720.38;;;25.08;50.21
68197;BME280;55019;49.382;11.358;2022-07-23T07:06:59;96719.09;;;25.16;49.52
68197;BME280;55019;49.382;11.358;2022-07-23T07:09:24;96723.78;;;25.09;50.65
68197;BME280;55019;49.382;11.358;2022-07-23T07:11:50;96726.28;;;24.94;49.70
68197;BME280;55019;49.382;11.358;2022-07-23T07:14:15;96720.44;;;24.66;50.27
68197;BME280;55019;49.382;11.358;2022-07-23T07:16:41;96730.88;;;24.77;50.57
68197;BME280;55019;49.382;11.358;2022-07-23T07:19:06;96741.38;;;24.98;50.71
68197;BME280;55019;49.382;11.358;2022-07-23T07:21:32;96738.47;;;24.95;49.32
68197;BME280;55019;49.382;11.358;2022-07-23T07:23:57;96735.00;;;24.95;47.98
68197;BME280;55019;49.382;11.358;2022-07-23T07:26:23;96733.59;;;25.08;48.66
68197;BME280;55019;49.382;11.358;2022-07-23T07:28:51;96736.88;;;24.94;49.09
68197;BME280;55019;49.382;11.358;2022-07-23T07:31:16;96742.09;;;25.15;48.59
68197;BME280;55019;49.382;11.358;2022-07-23T07:33:42;96733.47;;;25.51;49.21
68197;BME280;55019;49.382;11.358;2022-07-23T07:36:07;96749.63;;;25.55;46.58
68197;BME280;55019;49.382;11.358;2022-07-23T07:38:33;96753.78;;;25.46;47.51
68197;BME280;55019;49.382;11.358;2022-07-23T07:40:58;96757.09;;;25.31;47.55
68197;BME280;55019;49.382;11.358;2022-07-23T07:43:24;96758.59;;;25.22;48.18
68197;BME280;55019;49.382;11.358;2022-07-23T07:45:49;96761.75;;;25.19;47.59
68197;BME280;55019;49.382;11.358;2022-07-23T07:48:14;96764.94;;;25.00;48.94
68197;BME280;55019;49.382;11.358;2022-07-23T07:50:40;96761.25;;;25.01;49.58
68197;BME280;55019;49.382;11.358;2022-07-23T07:53:05;96772.25;;;25.14;49.30
68197;BME280;55019;49.382;11.358;2022-07-23T07:55:31;96773.72;;;25.27;48.85
68197;BME280;55019;49.382;11.358;2022-07-23T07:57:57;96770.41;;;25.41;48.16
68197;BME280;55019;49.382;11.358;2022-07-23T08:00:22;96784.72;;;26.03;47.13
68197;BME280;55019;49.382;11.358;2022-07-23T08:02:50;96785.44;;;25.94;46.80
68197;BME280;55019;49.382;11.358;2022-07-23T08:05:19;96779.03;;;26.72;46.12
68197;BME280;55019;49.382;11.358;2022-07-23T08:07:46;96776.56;;;27.17;44.41
68197;BME280;55019;49.382;11.358;2022-07-23T08:10:11;96779.81;;;27.64;45.09
68197;BME280;55019;49.382;11.358;2022-07-23T08:12:41;96783.59;;;27.98;42.89
68197;BME280;55019;49.382;11.358;2022-07-23T08:15:07;96783.53;;;27.58;43.10
68197;BME280;55019;49.382;11.358;2022-07-23T08:17:33;96779.81;;;27.54;43.30
68197;BME280;55019;49.382;11.358;2022-07-23T08:19:58;96788.16;;;27.01;44.40
68197;BME280;55019;49.382;11.358;2022-07-23T08:22:24;96788.47;;;27.05;44.72
68197;BME280;55019;49.382;11.358;2022-07-23T08:24:49;96783.53;;;27.53;43.97
68197;BME280;55019;49.382;11.358;2022-07-23T08:27:15;96791.53;;;27.78;42.30
68197;BME280;55019;49.382;11.358;2022-07-23T08:29:40;96801.63;;;28.16;41.88
68197;BME280;55019;49.382;11.358;2022-07-23T08:32:05;96795.44;;;28.65;41.69
68197;BME280;55019;49.382;11.358;2022-07-23T08:34:31;96795.94;;;29.31;40.31
68197;BME280;55019;49.382;11.358;2022-07-23T08:36:56;96797.81;;;29.73;39.13
68197;BME280;55019;49.382;11.358;2022-07-23T08:39:22;96807.63;;;30.16;38.07
68197;BME280;55019;49.382;11.358;2022-07-23T08:41:47;96810.75;;;28.98;38.89
68197;BME280;55019;49.382;11.358;2022-07-23T08:44:16;96803.28;;;29.00;40.18
68197;BME280;55019;49.382;11.358;2022-07-23T08:46:42;96798.81;;;28.81;39.86
68197;BME280;55019;49.382;11.358;2022-07-23T08:49:08;96804.50;;;28.64;39.31
68197;BME280;55019;49.382;11.358;2022-07-23T08:51:34;96807.75;;;28.07;38.70
68197;BME280;55019;49.382;11.358;2022-07-23T08:54:00;96810.16;;;27.83;40.25
68197;BME280;55019;49.382;11.358;2022-07-23T08:56:26;96808.00;;;28.10;39.48
68197;BME280;55019;49.382;11.358;2022-07-23T08:58:53;96806.94;;;28.06;39.70
68197;BME280;55019;49.382;11.358;2022-07-23T09:01:19;96824.44;;;27.67;40.75
68197;BME280;55019;49.382;11.358;2022-07-23T09:03:44;96823.47;;;27.07;41.22
68197;BME280;55019;49.382;11.358;2022-07-23T09:06:10;96811.84;;;26.61;42.07
68197;BME280;55019;49.382;11.358;2022-07-23T09:11:05;96835.28;;;25.75;44.42
68197;BME280;55019;49.382;11.358;2022-07-23T09:16:10;96848.75;;;25.21;44.61
68197;BME280;55019;49.382;11.358;2022-07-23T09:21:23;96859.66;;;24.65;47.09
68197;BME280;55019;49.382;11.358;2022-07-23T09:23:55;96872.84;;;24.49;46.79
68197;BME280;55019;49.382;11.358;2022-07-23T09:29:01;96876.69;;;23.75;51.54
68197;BME280;55019;49.382;11.358;2022-07-23T09:31:32;96892.16;;;23.44;52.18
68197;BME280;55019;49.382;11.358;2022-07-23T09:34:34;96880.25;;;23.14;53.92
68197;BME280;55019;49.382;11.358;2022-07-23T09:37:09;96895.66;;;22.71;57.91
68197;BME280;55019;49.382;11.358;2022-07-23T09:39:35;96902.72;;;22.36;61.58
68197;BME280;55019;49.382;11.358;2022-07-23T09:42:19;96913.03;;;22.26;61.98
68197;BME280;55019;49.382;11.358;2022-07-23T09:44:49;96915.84;;;22.01;63.27
68197;BME280;55019;49.382;11.358;2022-07-23T09:47:16;96914.78;;;21.91;63.57
68197;BME280;55019;49.382;11.358;2022-07-23T09:52:45;96911.94;;;21.63;63.92
68197;BME280;55019;49.382;11.358;2022-07-23T09:55:13;96895.47;;;21.38;65.11
68197;BME280;55019;49.382;11.358;2022-07-23T09:57:40;96912.34;;;21.31;64.93
68197;BME280;55019;49.382;11.358;2022-07-23T10:00:08;96904.69;;;21.11;65.00
68197;BME280;55019;49.382;11.358;2022-07-23T10:02:35;96907.94;;;20.95;65.11
68197;BME280;55019;49.382;11.358;2022-07-23T10:05:04;96905.44;;;21.00;65.37
68197;BME280;55019;49.382;11.358;2022-07-23T10:07:36;96900.13;;;21.07;65.60
68197;BME280;55019;49.382;11.358;2022-07-23T10:10:04;96892.13;;;21.13;65.55
68197;BME280;55019;49.382;11.358;2022-07-23T10:12:30;96884.69;;;21.10;65.39
68197;BME280;55019;49.382;11.358;2022-07-23T10:14:59;96902.50;;;21.08;65.95
68197;BME280;55019;49.382;11.358;2022-07-23T10:17:27;96907.72;;;20.97;64.61
68197;BME280;55019;49.382;11.358;2022-07-23T10:19:53;96901.72;;;21.08;65.13
68197;BME280;55019;49.382;11.358;2022-07-23T10:22:25;96888.66;;;21.19;65.32
68197;BME280;55019;49.382;11.358;2022-07-23T10:38:51;96883.22;;;21.32;63.87
68197;BME280;55019;49.382;11.358;2022-07-23T10:41:40;96889.63;;;21.36;63.38
68197;BME280;55019;49.382;11.358;2022-07-23T10:44:10;96888.03;;;21.35;63.42
68197;BME280;55019;49.382;11.358;2022-07-23T10:46:54;96881.56;;;21.20;63.36
68197;BME280;55019;49.382;11.358;2022-07-23T10:49:38;96883.63;;;21.47;63.56
68197;BME280;55019;49.382;11.358;2022-07-23T10:57:48;96892.28;;;22.18;61.38
68197;BME280;55019;49.382;11.358;2022-07-23T11:00:15;96897.25;;;22.49;60.45
68197;BME280;55019;49.382;11.358;2022-07-23T11:02:46;96899.31;;;22.47;60.21
68197;BME280;55019;49.382;11.358;2022-07-23T11:05:17;96885.56;;;22.22;59.97
68197;BME280;55019;49.382;11.358;2022-07-23T11:16:11;96907.41;;;21.70;64.95
68197;BME280;55019;49.382;11.358;2022-07-23T11:24:14;96903.38;;;21.68;66.87
68197;BME280;55019;49.382;11.358;2022-07-23T11:26:44;96898.06;;;21.56;67.81
68197;BME280;55019;49.382;11.358;2022-07-23T11:34:31;96887.63;;;21.68;70.35
68197;BME280;55019;49.382;11.358;2022-07-23T11:36:58;96885.66;;;21.63;67.47
68197;BME280;55019;49.382;11.358;2022-07-23T11:39:28;96880.53;;;21.50;70.46
68197;BME280;55019;49.382;11.358;2022-07-23T11:41:55;96878.75;;;21.92;69.44
68197;BME280;55019;49.382;11.358;2022-07-23T11:44:31;96869.13;;;21.86;69.08
68197;BME280;55019;49.382;11.358;2022-07-23T11:47:02;96865.72;;;21.97;69.43
68197;BME280;55019;49.382;11.358;2022-07-23T11:49:29;96857.75;;;22.37;68.67
68197;BME280;55019;49.382;11.358;2022-07-23T11:54:33;96861.59;;;22.92;61.94
68197;BME280;55019;49.382;11.358;2022-07-23T11:57:00;96860.00;;;23.86;61.41
68197;BME280;55019;49.382;11.358;2022-07-23T11:59:27;96849.41;;;24.69;59.54
68197;BME280;55019;49.382;11.358;2022-07-23T12:02:01;96848.38;;;26.50;54.08
68197;BME280;55019;49.382;11.358;2022-07-23T12:04:45;96839.72;;;27.20;52.36
68197;BME280;55019;49.382;11.358;2022-07-23T12:07:33;96832.41;;;27.72;50.27
68197;BME280;55019;49.382;11.358;2022-07-23T12:10:13;96827.13;;;28.02;47.96
68197;BME280;55019;49.382;11.358;2022-07-23T12:12:41;96818.38;;;27.97;48.02
68197;BME280;55019;49.382;11.358;2022-07-23T12:15:08;96826.59;;;28.15;45.63
68197;BME280;55019;49.382;11.358;2022-07-23T12:17:36;96820.91;;;27.22;48.63
68197;BME280;55019;49.382;11.358;2022-07-23T12:20:04;96816.28;;;27.02;45.34
68197;BME280;55019;49.382;11.358;2022-07-23T12:22:43;96819.09;;;27.37;48.03
68197;BME280;55019;49.382;11.358;2022-07-23T12:25:12;96811.22;;;27.92;47.17
68197;BME280;55019;49.382;11.358;2022-07-23T12:27:38;96815.47;;;27.98;45.78
68197;BME280;55019;49.382;11.358;2022-07-23T12:30:20;96812.19;;;27.46;43.80
68197;BME280;55019;49.382;11.358;2022-07-23T12:32:47;96802.19;;;27.88;44.25
68197;BME280;55019;49.382;11.358;2022-07-23T12:35:14;96812.28;;;27.86;43.60
68197;BME280;55019;49.382;11.358;2022-07-23T12:37:42;96807.41;;;28.58;43.78
68197;BME280;55019;49.382;11.358;2022-07-23T12:40:26;96810.03;;;28.68;40.59
68197;BME280;55019;49.382;11.358;2022-07-23T12:43:04;96808.66;;;28.90;41.55
68197;BME280;55019;49.382;11.358;2022-07-23T12:45:48;96802.56;;;29.38;39.51
68197;BME280;55019;49.382;11.358;2022-07-23T12:48:18;96802.81;;;29.42;38.49
68197;BME280;55019;49.382;11.358;2022-07-23T12:50:50;96809.03;;;29.27;40.57
68197;BME280;55019;49.382;11.358;2022-07-23T12:53:21;96802.50;;;29.00;39.76
68197;BME280;55019;49.382;11.358;2022-07-23T12:55:48;96807.63;;;29.40;40.09
68197;BME280;55019;49.382;11.358;2022-07-23T12:58:16;96803.66;;;29.37;38.62
68197;BME280;55019;49.382;11.358;2022-07-23T13:04:05;96813.50;;;29.80;38.47
68197;BME280;55019;49.382;11.358;2022-07-23T13:06:37;96809.88;;;29.66;38.43
68197;BME280;55019;49.382;11.358;2022-07-23T13:09:05;96799.94;;;29.33;38.74
68197;BME280;55019;49.382;11.358;2022-07-23T13:11:30;96799.09;;;29.43;40.47
68197;BME280;55019;49.382;11.358;2022-07-23T13:13:56;96806.88;;;29.29;39.39
68197;BME280;55019;49.382;11.358;2022-07-23T13:16:22;96806.19;;;29.57;39.78
68197;BME280;55019;49.382;11.358;2022-07-23T13:18:47;96812.69;;;29.79;38.67
68197;BME280;55019;49.382;11.358;2022-07-23T13:21:13;96812.13;;;29.82;37.48
68197;BME280;55019;49.382;11.358;2022-07-23T13:23:38;96814.19;;;29.57;38.07
68197;BME280;55019;49.382;11.358;2022-07-23T13:26:06;96805.50;;;29.42;35.68
68197;BME280;55019;49.382;11.358;2022-07-23T13:28:32;96805.75;;;28.92;36.88
68197;BME280;55019;49.382;11.358;2022-07-23T13:30:57;96805.19;;;28.95;38.01
68197;BME280;55019;49.382;11.358;2022-07-23T13:33:24;96815.22;;;29.13;38.49
68197;BME280;55019;49.382;11.358;2022-07-23T13:35:51;96809.72;;;28.94;36.87
68197;BME280;55019;49.382;11.358;2022-07-23T13:38:17;96810.72;;;29.13;37.51
68197;BME280;55019;49.382;11.358;2022-07-23T13:40:44;96814.78;;;28.86;36.58
68197;BME280;55019;49.382;11.358;2022-07-23T13:43:12;96811.63;;;28.89;37.96
68197;BME280;55019;49.382;11.358;2022-07-23T13:45:38;96804.72;;;28.68;37.15
68197;BME280;55019;49.382;11.358;2022-07-23T13:48:05;96798.91;;;28.61;38.36